createdAt,value
2017-06-05T00:01:17.628Z,15.24
2017-06-05T00:03:43.956Z,16.67
2017-06-05T00:06:10.283Z,15.24
2017-06-05T00:08:43.339Z,14.60
2017-06-05T00:11:13.722Z,15.27
2017-06-05T00:13:46.762Z,16.20
2017-06-05T00:16:19.792Z,15.94
2017-06-05T00:18:52.508Z,16.60
2017-06-05T00:21:18.937Z,15.19
2017-06-05T00:23:45.295Z,14.44
2017-06-05T00:26:12.689Z,14.19
2017-06-05T00:28:39.053Z,13.83
2017-06-05T00:31:05.432Z,14.08
2017-06-05T00:33:31.785Z,13.76
2017-06-05T00:35:58.115Z,13.63
2017-06-05T00:38:24.464Z,13.50
2017-06-05T00:40:50.830Z,13.71
2017-06-05T00:43:17.191Z,13.90
2017-06-05T00:45:43.528Z,15.48
2017-06-05T00:48:09.922Z,16.39
2017-06-05T00:50:36.704Z,16.66
2017-06-05T00:53:03.597Z,16.37
2017-06-05T00:55:30.546Z,15.82
2017-06-05T00:57:56.880Z,15.84
2017-06-05T01:00:23.553Z,16.26
2017-06-05T01:02:49.930Z,16.22
2017-06-05T01:05:16.930Z,13.92
2017-06-05T01:07:43.260Z,13.09
2017-06-05T01:10:09.768Z,13.16
2017-06-05T01:12:36.880Z,13.96
2017-06-05T01:15:03.805Z,13.20
2017-06-05T01:17:30.358Z,12.65
2017-06-05T01:19:57.246Z,12.70
2017-06-05T01:22:23.592Z,12.65
2017-06-05T01:24:49.982Z,12.58
2017-06-05T01:27:20.290Z,12.58
2017-06-05T01:29:53.443Z,12.76
2017-06-05T01:32:26.280Z,13.44
2017-06-05T01:34:58.859Z,14.77
2017-06-05T01:37:31.592Z,15.57
2017-06-05T01:40:04.172Z,15.19
2017-06-05T01:42:36.585Z,14.18
2017-06-05T01:45:08.974Z,13.40
2017-06-05T01:47:41.821Z,12.67
2017-06-05T01:53:01.602Z,14.35
2017-06-05T01:55:27.972Z,14.64
2017-06-05T01:57:54.363Z,14.93
2017-06-05T02:00:20.761Z,15.10
2017-06-05T02:02:47.219Z,14.94
2017-06-05T02:05:13.566Z,13.69
2017-06-05T02:07:39.897Z,12.92
2017-06-05T02:10:06.277Z,12.76
2017-06-05T02:12:32.665Z,12.22
2017-06-05T02:14:59.039Z,11.97
2017-06-05T02:17:25.391Z,12.05
2017-06-05T02:19:51.761Z,12.38
2017-06-05T02:22:18.124Z,12.76
2017-06-05T02:24:44.518Z,12.18
2017-06-05T02:27:10.868Z,12.48
2017-06-05T02:29:37.202Z,13.20
2017-06-05T02:32:03.524Z,14.88
2017-06-05T02:34:29.877Z,15.10
2017-06-05T02:36:56.235Z,14.72
2017-06-05T02:39:22.579Z,14.06
2017-06-05T02:41:48.923Z,13.58
2017-06-05T02:44:15.287Z,12.25
2017-06-05T02:46:41.637Z,12.30
2017-06-05T02:49:08.101Z,12.50
2017-06-05T02:51:34.473Z,13.32
2017-06-05T02:54:00.811Z,14.56
2017-06-05T02:56:27.165Z,14.36
2017-06-05T02:58:53.584Z,14.32
2017-06-05T03:01:19.926Z,14.61
2017-06-05T03:03:46.285Z,14.68
2017-06-05T03:06:12.713Z,14.75
2017-06-05T03:08:39.130Z,14.85
2017-06-05T03:11:05.474Z,13.92
2017-06-05T03:13:31.826Z,14.17
2017-06-05T03:15:58.185Z,14.16
2017-06-05T03:18:24.643Z,14.27
2017-06-05T03:20:51.008Z,14.71
2017-06-05T03:23:17.378Z,14.67
2017-06-05T03:25:43.736Z,14.58
2017-06-05T03:28:10.115Z,14.61
2017-06-05T03:30:36.476Z,14.14
2017-06-05T03:33:02.811Z,13.49
2017-06-05T03:35:29.167Z,12.36
2017-06-05T03:37:55.499Z,11.94
2017-06-05T03:40:21.901Z,13.43
2017-06-05T03:42:48.261Z,13.14
2017-06-05T03:45:14.620Z,12.69
2017-06-05T03:47:40.950Z,12.17
2017-06-05T03:50:07.303Z,13.39
2017-06-05T03:52:33.641Z,14.28
2017-06-05T03:55:00.083Z,14.84
2017-06-05T03:57:26.429Z,14.94
2017-06-05T03:59:52.776Z,14.71
2017-06-05T04:02:19.108Z,14.35
2017-06-05T04:04:45.462Z,12.77
2017-06-05T04:07:11.806Z,13.21
2017-06-05T04:09:38.170Z,13.90
2017-06-05T04:12:04.511Z,14.62
2017-06-05T04:14:30.868Z,14.91
2017-06-05T04:16:57.232Z,14.75
2017-06-05T04:19:23.586Z,14.76
2017-06-05T04:21:49.988Z,14.72
2017-06-05T04:24:16.359Z,14.66
2017-06-05T04:26:42.728Z,14.11
2017-06-05T04:29:09.083Z,13.25
2017-06-05T04:31:35.436Z,12.96
2017-06-05T04:34:01.805Z,13.32
2017-06-05T04:36:28.150Z,14.80
2017-06-05T04:38:54.493Z,15.13
2017-06-05T04:41:20.863Z,15.03
2017-06-05T04:43:47.273Z,15.08
2017-06-05T04:46:13.640Z,14.28
2017-06-05T04:48:40.013Z,13.19
2017-06-05T04:51:06.379Z,12.98
2017-06-05T04:53:32.816Z,12.86
2017-06-05T04:55:59.177Z,14.26
2017-06-05T04:58:25.534Z,14.73
2017-06-05T05:00:51.881Z,15.05
2017-06-05T05:03:18.257Z,14.68
2017-06-05T05:05:44.622Z,14.19
2017-06-05T05:08:10.981Z,14.71
2017-06-05T05:10:37.330Z,15.41
2017-06-05T05:13:03.750Z,14.77
2017-06-05T05:15:30.097Z,14.94
2017-06-05T05:17:56.426Z,15.57
2017-06-05T05:20:22.777Z,15.35
2017-06-05T05:22:49.123Z,15.63
2017-06-05T05:25:15.491Z,15.81
2017-06-05T05:27:41.857Z,14.82
2017-06-05T05:30:08.219Z,14.88
2017-06-05T05:32:34.636Z,15.52
2017-06-05T05:35:00.992Z,15.78
2017-06-05T05:37:27.335Z,15.78
2017-06-05T05:39:53.706Z,14.59
2017-06-05T05:42:20.067Z,14.73
2017-06-05T05:44:46.441Z,15.10
2017-06-05T05:47:12.802Z,14.97
2017-06-05T05:49:39.205Z,15.77
2017-06-05T05:52:05.568Z,14.53
2017-06-05T05:54:31.909Z,15.55
2017-06-05T05:56:58.223Z,14.83
2017-06-05T05:59:24.550Z,15.52
2017-06-05T06:01:50.909Z,16.11
2017-06-05T06:04:17.251Z,15.94
2017-06-05T06:06:43.577Z,16.29
2017-06-05T06:09:09.988Z,16.42
2017-06-05T06:11:36.332Z,16.48
2017-06-05T06:14:02.683Z,16.48
2017-06-05T06:16:29.016Z,16.48
2017-06-05T06:18:55.394Z,16.53
2017-06-05T06:21:21.738Z,16.56
2017-06-05T06:23:48.083Z,16.50
2017-06-05T06:26:20.890Z,16.52
2017-06-05T06:28:47.228Z,16.48
2017-06-05T06:31:13.593Z,16.13
2017-06-05T06:33:39.948Z,16.40
2017-06-05T06:36:06.313Z,16.60
2017-06-05T06:38:32.667Z,16.83
2017-06-05T06:40:59.049Z,16.90
2017-06-05T06:43:25.813Z,16.87
2017-06-05T06:45:52.162Z,16.35
2017-06-05T06:48:18.513Z,16.71
2017-06-05T06:50:44.899Z,16.96
2017-06-05T06:53:11.260Z,17.03
2017-06-05T06:55:37.597Z,16.69
2017-06-05T06:58:03.926Z,16.69
2017-06-05T07:00:30.285Z,16.89
2017-06-05T07:02:56.646Z,16.46
2017-06-05T07:05:23.010Z,17.27
2017-06-05T07:07:49.410Z,17.18
2017-06-05T07:10:15.786Z,17.43
2017-06-05T07:12:42.171Z,17.56
2017-06-05T07:15:08.515Z,17.67
2017-06-05T07:17:34.882Z,17.52
2017-06-05T07:20:01.257Z,17.83
2017-06-05T07:22:27.595Z,17.68
2017-06-05T07:24:54.006Z,17.85
2017-06-05T07:27:20.367Z,17.61
2017-06-05T07:29:46.789Z,18.00
2017-06-05T07:32:13.149Z,17.44
2017-06-05T07:34:39.515Z,17.72
2017-06-05T07:37:05.873Z,18.14
2017-06-05T07:39:32.209Z,18.20
2017-06-05T07:41:58.694Z,17.95
2017-06-05T07:44:25.036Z,18.04
2017-06-05T07:46:51.386Z,18.52
2017-06-05T07:49:17.842Z,18.76
2017-06-05T07:51:44.180Z,18.87
2017-06-05T07:54:10.532Z,18.35
2017-06-05T07:56:36.871Z,18.29
2017-06-05T07:59:03.270Z,18.77
2017-06-05T08:01:29.752Z,18.66
2017-06-05T08:03:56.153Z,18.57
2017-06-05T08:06:22.482Z,18.89
2017-06-05T08:08:48.866Z,18.93
2017-06-05T08:11:15.241Z,19.01
2017-06-05T08:13:41.591Z,18.94
2017-06-05T08:16:07.929Z,19.29
2017-06-05T08:18:34.275Z,19.13
2017-06-05T08:21:00.614Z,19.06
2017-06-05T08:23:26.956Z,18.88
2017-06-05T08:25:53.303Z,19.47
2017-06-05T08:28:19.651Z,19.20
2017-06-05T08:30:46.108Z,19.61
2017-06-05T08:33:12.482Z,19.84
2017-06-05T08:35:38.891Z,19.93
2017-06-05T08:38:05.260Z,19.83
2017-06-05T08:40:31.852Z,20.02
2017-06-05T08:42:58.236Z,20.12
2017-06-05T08:45:25.355Z,20.24
2017-06-05T08:47:51.724Z,20.13
2017-06-05T08:50:18.069Z,20.38
2017-06-05T08:52:44.402Z,20.82
2017-06-05T08:55:10.775Z,20.44
2017-06-05T08:57:37.211Z,20.32
2017-06-05T09:00:03.569Z,20.14
2017-06-05T09:02:29.929Z,20.60
2017-06-05T09:04:56.413Z,19.99
2017-06-05T09:07:22.799Z,20.17
2017-06-05T09:09:49.150Z,20.16
2017-06-05T09:12:15.518Z,20.39
2017-06-05T09:14:42.018Z,20.61
2017-06-05T09:17:08.353Z,20.94
2017-06-05T09:19:34.720Z,21.00
2017-06-05T09:22:07.385Z,21.24
2017-06-05T09:24:33.776Z,21.38
2017-06-05T09:27:06.814Z,21.57
2017-06-05T09:32:26.383Z,21.72
2017-06-05T09:34:52.758Z,21.77
2017-06-05T09:37:19.161Z,21.48
2017-06-05T09:39:45.509Z,21.27
2017-06-05T09:42:11.866Z,22.15
2017-06-05T09:44:38.309Z,22.10
2017-06-05T09:47:04.666Z,22.33
2017-06-05T09:49:31.031Z,22.57
2017-06-05T09:51:57.378Z,22.67
2017-06-05T09:54:30.367Z,22.70
2017-06-05T09:57:02.855Z,22.23
2017-06-05T09:59:35.438Z,23.06
2017-06-05T10:02:07.692Z,22.75
2017-06-05T10:04:40.048Z,23.15
2017-06-05T10:07:06.383Z,22.28
2017-06-05T10:09:32.710Z,23.24
2017-06-05T10:11:59.066Z,23.12
2017-06-05T10:14:25.411Z,23.04
2017-06-05T10:16:51.766Z,22.35
2017-06-05T10:19:18.124Z,23.73
2017-06-05T10:21:44.450Z,23.99
2017-06-05T10:24:10.823Z,24.12
2017-06-05T10:26:43.449Z,23.88
2017-06-05T10:29:09.792Z,24.37
2017-06-05T10:31:42.927Z,25.65
2017-06-05T10:34:09.309Z,25.28
2017-06-05T10:36:35.679Z,25.30
2017-06-05T10:39:02.086Z,25.41
2017-06-05T10:41:28.409Z,26.17
2017-06-05T10:43:54.734Z,25.38
2017-06-05T10:46:21.117Z,25.81
2017-06-05T10:48:47.459Z,25.55
2017-06-05T10:51:13.811Z,25.83
2017-06-05T10:53:40.165Z,26.70
2017-06-05T10:56:06.508Z,27.05
2017-06-05T10:58:32.888Z,27.00
2017-06-05T11:00:59.219Z,26.66
2017-06-05T11:03:25.577Z,26.79
2017-06-05T11:05:51.981Z,25.85
2017-06-05T11:08:42.288Z,25.65
2017-06-05T11:11:08.619Z,25.88
2017-06-05T11:13:35.009Z,27.36
2017-06-05T11:16:01.360Z,27.09
2017-06-05T11:18:27.794Z,27.29
2017-06-05T11:20:54.153Z,26.40
2017-06-05T11:23:20.591Z,25.24
2017-06-05T11:25:53.263Z,26.45
2017-06-05T11:28:26.190Z,26.25
2017-06-05T11:30:52.531Z,25.78
2017-06-05T11:33:18.985Z,26.23
2017-06-05T11:35:51.202Z,26.73
2017-06-05T11:38:17.561Z,27.20
2017-06-05T11:40:44.929Z,26.34
2017-06-05T11:43:11.303Z,27.29
2017-06-05T11:45:37.662Z,26.56
2017-06-05T11:48:04.114Z,26.73
2017-06-05T11:50:30.525Z,27.60
2017-06-05T11:52:56.890Z,27.63
2017-06-05T11:55:23.279Z,27.60
2017-06-05T11:57:49.685Z,27.81
2017-06-05T12:00:16.087Z,28.09
2017-06-05T12:02:42.485Z,25.90
2017-06-05T12:05:08.979Z,26.05
2017-06-05T12:07:35.363Z,25.05
2017-06-05T12:10:01.772Z,25.12
2017-06-05T12:12:28.974Z,25.73
2017-06-05T12:14:55.357Z,27.62
2017-06-05T12:17:21.752Z,26.87
2017-06-05T12:19:48.145Z,27.51
2017-06-05T12:22:14.499Z,26.97
2017-06-05T12:24:44.604Z,26.46
2017-06-05T12:27:14.895Z,26.59
2017-06-05T12:29:41.288Z,27.25
2017-06-05T12:32:07.676Z,26.90
2017-06-05T12:34:34.054Z,27.36
2017-06-05T12:37:07.141Z,27.03
2017-06-05T12:39:33.490Z,28.20
2017-06-05T12:41:59.829Z,27.53
2017-06-05T12:44:26.283Z,27.65
2017-06-05T12:46:52.668Z,27.65
2017-06-05T12:49:26.240Z,26.79
2017-06-05T12:51:52.777Z,26.32
2017-06-05T12:54:26.136Z,25.14
2017-06-05T12:56:59.320Z,25.39
2017-06-05T12:59:29.879Z,24.89
2017-06-05T13:02:00.518Z,25.88
2017-06-05T13:04:33.185Z,24.63
2017-06-05T13:07:05.818Z,24.71
2017-06-05T13:09:38.465Z,24.91
2017-06-05T13:12:04.826Z,25.33
2017-06-05T13:14:31.216Z,25.05
2017-06-05T13:17:01.632Z,25.33
2017-06-05T13:19:28.042Z,24.08
2017-06-05T13:21:54.423Z,23.96
2017-06-05T13:24:27.520Z,24.77
2017-06-05T13:27:00.863Z,25.11
2017-06-05T13:29:27.237Z,25.12
2017-06-05T13:31:59.527Z,25.38
2017-06-05T13:34:32.330Z,25.48
2017-06-05T13:37:15.415Z,25.84
2017-06-05T13:39:41.778Z,25.91
2017-06-05T13:42:09.254Z,26.09
2017-06-05T13:44:35.691Z,26.20
2017-06-05T13:47:02.635Z,25.35
2017-06-05T13:49:36.115Z,25.38
2017-06-05T13:52:09.011Z,25.62
2017-06-05T13:54:41.818Z,25.32
2017-06-05T13:57:08.175Z,25.84
2017-06-05T13:59:34.549Z,25.93
2017-06-05T14:02:00.918Z,26.33
2017-06-05T14:04:27.289Z,25.46
2017-06-05T14:07:01.573Z,26.05
2017-06-05T14:09:31.384Z,26.52
2017-06-05T14:12:03.784Z,27.50
2017-06-05T14:14:30.160Z,26.88
2017-06-05T14:16:56.521Z,27.21
2017-06-05T14:19:29.576Z,26.94
2017-06-05T14:22:02.419Z,26.67
2017-06-05T14:24:35.147Z,26.73
2017-06-05T14:27:09.338Z,27.13
2017-06-05T14:29:42.539Z,27.04
2017-06-05T14:32:15.414Z,26.93
2017-06-05T14:34:47.956Z,26.53
2017-06-05T14:37:29.879Z,26.44
2017-06-05T14:40:03.660Z,27.18
2017-06-05T14:42:36.702Z,27.03
2017-06-05T14:45:09.287Z,27.51
2017-06-05T14:47:35.646Z,26.63
2017-06-05T14:50:08.149Z,26.99
2017-06-05T14:52:38.318Z,27.68
2017-06-05T14:55:04.681Z,27.68
2017-06-05T14:57:31.040Z,26.52
2017-06-05T14:59:57.411Z,26.70
2017-06-05T15:02:23.810Z,27.83
2017-06-05T15:04:50.237Z,26.50
2017-06-05T15:07:16.602Z,26.92
2017-06-05T15:09:42.977Z,26.98
2017-06-05T15:12:09.426Z,27.55
2017-06-05T15:14:42.315Z,26.39
2017-06-05T15:17:08.690Z,26.69
2017-06-05T15:19:35.117Z,26.72
2017-06-05T15:22:01.577Z,26.15
2017-06-05T15:24:27.916Z,26.20
2017-06-05T15:26:54.279Z,25.98
2017-06-05T15:29:20.681Z,26.18
2017-06-05T15:31:47.026Z,26.71
2017-06-05T15:34:13.393Z,25.52
2017-06-05T15:36:39.755Z,25.85
2017-06-05T15:39:06.136Z,26.23
2017-06-05T15:41:32.507Z,25.66
2017-06-05T15:43:58.882Z,26.08
2017-06-05T15:46:25.264Z,26.15
2017-06-05T15:48:51.699Z,26.36
2017-06-05T15:51:18.124Z,26.90
2017-06-05T15:53:44.502Z,26.90
2017-06-05T15:56:10.879Z,26.52
2017-06-05T15:58:37.266Z,25.98
2017-06-05T16:01:03.608Z,26.48
2017-06-05T16:03:30.127Z,26.62
2017-06-05T16:05:56.487Z,26.90
2017-06-05T16:08:22.844Z,26.39
2017-06-05T16:10:49.190Z,26.35
2017-06-05T16:13:15.561Z,26.98
2017-06-05T16:15:41.947Z,27.02
2017-06-05T16:18:08.322Z,27.37
2017-06-05T16:20:34.696Z,26.65
2017-06-05T16:23:01.069Z,27.20
2017-06-05T16:25:27.499Z,26.58
2017-06-05T16:27:53.877Z,26.35
2017-06-05T16:30:20.271Z,26.70
2017-06-05T16:32:46.663Z,26.03
2017-06-05T16:35:13.002Z,26.79
2017-06-05T16:37:39.352Z,25.85
2017-06-05T16:40:05.722Z,26.47
2017-06-05T16:42:32.187Z,26.15
2017-06-05T16:44:58.552Z,26.15
2017-06-05T16:47:24.924Z,26.95
2017-06-05T16:49:51.293Z,26.27
2017-06-05T16:52:17.784Z,26.71
2017-06-05T16:54:44.128Z,26.47
2017-06-05T16:57:10.496Z,26.38
2017-06-05T16:59:36.874Z,25.89
2017-06-05T17:02:03.253Z,26.13
2017-06-05T17:04:29.605Z,26.63
2017-06-05T17:06:55.967Z,26.09
2017-06-05T17:09:22.338Z,25.40
2017-06-05T17:11:48.710Z,25.33
2017-06-05T17:14:15.287Z,25.47
2017-06-05T17:16:41.669Z,25.58
2017-06-05T17:19:08.834Z,25.29
2017-06-05T17:21:35.194Z,25.18
2017-06-05T17:24:01.564Z,24.72
2017-06-05T17:26:28.070Z,24.87
2017-06-05T17:28:54.446Z,24.74
2017-06-05T17:31:20.804Z,24.58
2017-06-05T17:33:47.171Z,24.68
2017-06-05T17:36:13.615Z,24.65
2017-06-05T17:38:39.963Z,24.49
2017-06-05T17:41:06.329Z,24.40
2017-06-05T17:43:32.682Z,24.59
2017-06-05T17:45:59.086Z,24.26
2017-06-05T17:48:25.497Z,24.39
2017-06-05T17:50:51.886Z,24.22
2017-06-05T17:53:18.296Z,23.97
2017-06-05T17:55:44.734Z,23.76
2017-06-05T17:58:11.095Z,23.80
2017-06-05T18:00:37.465Z,23.85
2017-06-05T18:03:03.863Z,23.73
2017-06-05T18:05:30.249Z,23.82
2017-06-05T18:07:56.618Z,23.86
2017-06-05T18:10:22.976Z,23.71
2017-06-05T18:12:49.448Z,23.34
2017-06-05T18:15:15.850Z,23.64
2017-06-05T18:17:42.197Z,23.74
2017-06-05T18:20:08.523Z,23.49
2017-06-05T18:22:34.886Z,23.50
2017-06-05T18:25:01.249Z,23.43
2017-06-05T18:27:28.266Z,23.41
2017-06-05T18:29:56.030Z,23.34
2017-06-05T18:32:22.464Z,23.21
2017-06-05T18:34:49.503Z,23.32
2017-06-05T18:37:16.508Z,23.14
2017-06-05T18:39:42.853Z,22.84
2017-06-05T18:42:09.373Z,22.83
2017-06-05T18:44:35.872Z,23.01
2017-06-05T18:47:02.796Z,23.08
2017-06-05T18:49:29.488Z,23.16
2017-06-05T18:51:56.467Z,22.93
2017-06-05T18:54:23.263Z,22.91
2017-06-05T18:56:49.741Z,22.84
2017-06-05T18:59:16.235Z,22.94
2017-06-05T19:01:42.775Z,22.85
2017-06-05T19:04:09.557Z,22.65
2017-06-05T19:06:36.152Z,22.74
2017-06-05T19:09:02.640Z,22.55
2017-06-05T19:11:29.334Z,22.41
2017-06-05T19:13:56.665Z,21.89
2017-06-05T19:16:23.360Z,21.71
2017-06-05T19:18:49.782Z,22.10
2017-06-05T19:21:16.198Z,21.88
2017-06-05T19:23:42.584Z,21.76
2017-06-05T19:26:09.148Z,21.81
2017-06-05T19:28:35.566Z,22.01
2017-06-05T19:31:01.951Z,21.65
2017-06-05T19:33:28.355Z,21.79
2017-06-05T19:35:54.711Z,22.00
2017-06-05T19:38:21.190Z,21.65
2017-06-05T19:40:47.560Z,21.83
2017-06-05T19:43:13.945Z,21.46
2017-06-05T19:45:40.337Z,21.64
2017-06-05T19:48:06.774Z,21.51
2017-06-05T19:50:33.132Z,21.60
2017-06-05T19:52:59.505Z,21.12
2017-06-05T19:55:25.855Z,21.00
2017-06-05T19:57:52.626Z,21.14
2017-06-05T20:00:19.321Z,20.67
2017-06-05T20:02:47.118Z,20.47
2017-06-05T20:05:13.575Z,20.94
2017-06-05T20:07:39.947Z,20.49
2017-06-05T20:10:06.374Z,20.78
2017-06-05T20:12:32.720Z,19.94
2017-06-05T20:14:59.176Z,20.16
2017-06-05T20:17:25.530Z,20.03
2017-06-05T20:19:52.000Z,19.61
2017-06-05T20:22:18.948Z,18.80
2017-06-05T20:24:45.339Z,19.49
2017-06-05T20:27:11.717Z,18.42
2017-06-05T20:29:38.446Z,19.05
2017-06-05T20:32:04.871Z,19.07
2017-06-05T20:34:31.373Z,18.62
2017-06-05T20:36:57.965Z,18.46
2017-06-05T20:39:24.320Z,19.35
2017-06-05T20:41:50.724Z,19.47
2017-06-05T20:55:12.524Z,17.57
2017-06-05T20:57:38.870Z,17.87
2017-06-05T21:00:05.243Z,17.86
2017-06-05T21:02:31.716Z,18.26
2017-06-05T21:04:58.062Z,17.96
2017-06-05T21:07:24.435Z,18.52
2017-06-05T21:09:50.803Z,17.91
2017-06-05T21:12:17.247Z,18.20
2017-06-05T21:14:43.595Z,17.85
2017-06-05T21:17:09.929Z,17.97
2017-06-05T21:19:36.360Z,17.91
2017-06-05T21:22:02.730Z,17.87
2017-06-05T21:24:29.086Z,17.59
2017-06-05T21:26:55.442Z,18.32
2017-06-05T21:29:21.840Z,18.32
2017-06-05T21:31:48.289Z,18.26
2017-06-05T21:34:14.629Z,18.70
2017-06-05T21:36:40.993Z,18.30
2017-06-05T21:39:07.457Z,18.65
2017-06-05T21:41:33.869Z,18.53
2017-06-05T21:44:00.227Z,19.00
2017-06-05T21:46:26.564Z,18.65
2017-06-05T21:48:53.230Z,17.90
2017-06-05T21:51:19.586Z,17.76
2017-06-05T21:53:45.945Z,17.66
2017-06-05T21:56:12.279Z,17.87
2017-06-05T21:58:38.617Z,17.18
2017-06-05T22:01:04.974Z,17.65
2017-06-05T22:03:31.335Z,17.44
2017-06-05T22:05:57.694Z,17.64
2017-06-05T22:08:24.139Z,17.68
2017-06-05T22:10:50.593Z,17.95
2017-06-05T22:13:16.957Z,18.47
2017-06-05T22:15:43.322Z,18.68
2017-06-05T22:18:09.731Z,18.93
2017-06-05T22:20:36.072Z,19.25
2017-06-05T22:23:03.471Z,18.59
2017-06-05T22:25:32.595Z,18.74
2017-06-05T22:28:02.556Z,19.13
2017-06-05T22:30:29.128Z,18.97
2017-06-05T22:32:55.500Z,18.62
2017-06-05T22:35:22.340Z,19.05
2017-06-05T22:37:49.267Z,19.18
2017-06-05T22:40:15.620Z,19.32
2017-06-05T22:42:41.969Z,19.13
2017-06-05T22:45:08.297Z,19.25
2017-06-05T22:47:34.657Z,19.16
2017-06-05T22:50:00.996Z,19.19
2017-06-05T22:52:27.336Z,19.23
2017-06-05T22:54:53.716Z,19.38
2017-06-05T22:57:20.085Z,19.26
2017-06-05T22:59:46.415Z,19.32
2017-06-05T23:02:12.744Z,19.09
2017-06-05T23:04:39.079Z,19.42
2017-06-05T23:07:05.511Z,19.23
2017-06-05T23:09:31.839Z,18.92
2017-06-05T23:11:58.194Z,19.25
2017-06-05T23:14:24.538Z,19.10
2017-06-05T23:16:50.943Z,18.96
2017-06-05T23:19:17.280Z,19.17
2017-06-05T23:21:43.626Z,19.26
2017-06-05T23:24:09.963Z,18.95
2017-06-05T23:26:36.341Z,18.95
2017-06-05T23:29:02.687Z,18.87
2017-06-05T23:31:29.016Z,19.10
2017-06-05T23:33:55.328Z,19.13
2017-06-05T23:36:21.750Z,19.02
2017-06-05T23:38:48.108Z,19.11
2017-06-05T23:41:14.819Z,18.92
2017-06-05T23:43:41.206Z,18.81
2017-06-05T23:46:07.554Z,18.97
2017-06-05T23:48:33.890Z,18.76
2017-06-05T23:51:00.715Z,18.88
2017-06-05T23:53:27.274Z,18.54
2017-06-05T23:55:54.574Z,18.55
2017-06-05T23:58:20.961Z,18.79
